首页
METAR-TAF:

METAR-TAF

机场 :

Hurlburt Field

Mary Esther, 佛罗里达州, 美国

纬度: 30-25N, 经度: 086-41W, 海拔: 12米

当前天气观测

该预报发布于42分钟前的18:56 UTC
风速7节,风向西转西南
温度 33°C
湿度 46%
气压 1020 hPa
能見度: 16.1公里
少量云层高于18000英尺
少量云层高于20000英尺

METAR: KHRT 251856Z AUTO 24007KT 10SM FEW180 FEW200 33/20 A3011 RMK AO2 SLP198 T03310202 $

时间: 14:38 (19:38 UTC)

预报

该预报发布于22小时和38分钟前的21:00 UTC
预报有效从24日的 18点(UTC)到 25日的 24点(UTC)
风速9节,风向
能见度10公里或以上
天空无云
成为
从 25日的 01点(UTC)到 25日的 01点(UTC)
风速6节,风向多变
能见度10公里或以上
天空无云
成为
从 25日的 17点(UTC)到 25日的 18点(UTC)
风速10节,风向南转西南
能見度: 2810
少量云层高于4000英尺

TAF: KHRT 242100Z 2418/2524 17009KT 9999 SKC QNH3009INS BECMG 2501/2501 VRB06KT 9999 SKC QNH3009INS BECMG 2517/2518 21010KT 9999 FEW040 QNH3007INS TX29/2520Z TN20/2511Z LAST NO AMDS AFT 2501 NEXT 2810

超过4000个机场的气象观测和天气预报(METAR&TAF报告)。

可查询的气象台以黄色和红色小点在地图上表示。

将鼠标移到小点上方,可查看气象台名称。

然后点击查看天气观测和预报。

如需切换地图:点击带黑十字的绿色按钮放大地图;点击带横线的绿色按钮缩小地图;或者点击绿色箭头查看邻近地区的地图。


METAR-TAF: